sensor_id;sensor_type;location;lat;lon;timestamp;pressure;altitude;pressure_sealevel;temperature;humidity
12172;BME280;6149;52.418;13.668;2022-10-31T00:01:20;101406.41;;;8.75;100.00
12172;BME280;6149;52.418;13.668;2022-10-31T00:03:51;101412.66;;;8.72;100.00
12172;BME280;6149;52.418;13.668;2022-10-31T00:06:19;101412.78;;;8.67;100.00
12172;BME280;6149;52.418;13.668;2022-10-31T00:08:52;101417.34;;;8.62;100.00
12172;BME280;6149;52.418;13.668;2022-10-31T00:11:22;101418.25;;;8.61;100.00
12172;BME280;6149;52.418;13.668;2022-10-31T00:13:50;101413.94;;;8.59;100.00
12172;BME280;6149;52.418;13.668;2022-10-31T00:16:19;101413.13;;;8.57;100.00
12172;BME280;6149;52.418;13.668;2022-10-31T00:18:51;101409.63;;;8.56;100.00
12172;BME280;6149;52.418;13.668;2022-10-31T00:21:20;101414.22;;;8.51;100.00
12172;BME280;6149;52.418;13.668;2022-10-31T00:23:48;101414.25;;;8.50;100.00
12172;BME280;6149;52.418;13.668;2022-10-31T00:26:16;101408.16;;;8.48;100.00
12172;BME280;6149;52.418;13.668;2022-10-31T00:28:44;101409.94;;;8.47;100.00
12172;BME280;6149;52.418;13.668;2022-10-31T00:31:12;101413.53;;;8.45;100.00
12172;BME280;6149;52.418;13.668;2022-10-31T00:33:41;101423.25;;;8.43;100.00
12172;BME280;6149;52.418;13.668;2022-10-31T00:36:13;101419.84;;;8.39;100.00
12172;BME280;6149;52.418;13.668;2022-10-31T00:38:43;101420.81;;;8.36;100.00
12172;BME280;6149;52.418;13.668;2022-10-31T00:41:12;101426.94;;;8.37;100.00
12172;BME280;6149;52.418;13.668;2022-10-31T00:43:41;101424.34;;;8.35;100.00
12172;BME280;6149;52.418;13.668;2022-10-31T00:46:09;101429.72;;;8.32;100.00
12172;BME280;6149;52.418;13.668;2022-10-31T00:48:37;101434.19;;;8.29;100.00
12172;BME280;6149;52.418;13.668;2022-10-31T00:51:05;101433.31;;;8.28;100.00
12172;BME280;6149;52.418;13.668;2022-10-31T00:53:35;101430.78;;;8.25;100.00
12172;BME280;6149;52.418;13.668;2022-10-31T00:56:04;101428.22;;;8.22;100.00
12172;BME280;6149;52.418;13.668;2022-10-31T00:58:33;101436.22;;;8.19;100.00
12172;BME280;6149;52.418;13.668;2022-10-31T01:01:01;101427.50;;;8.17;100.00
12172;BME280;6149;52.418;13.668;2022-10-31T01:03:31;101439.03;;;8.15;100.00
12172;BME280;6149;52.418;13.668;2022-10-31T01:06:02;101433.81;;;8.13;100.00
12172;BME280;6149;52.418;13.668;2022-10-31T01:08:32;101437.28;;;8.14;100.00
12172;BME280;6149;52.418;13.668;2022-10-31T01:11:05;101432.16;;;8.09;100.00
12172;BME280;6149;52.418;13.668;2022-10-31T01:13:36;101437.47;;;8.08;100.00
12172;BME280;6149;52.418;13.668;2022-10-31T01:16:07;101435.78;;;8.05;100.00
12172;BME280;6149;52.418;13.668;2022-10-31T01:18:36;101435.78;;;8.05;100.00
12172;BME280;6149;52.418;13.668;2022-10-31T01:21:05;101446.31;;;8.05;100.00
12172;BME280;6149;52.418;13.668;2022-10-31T01:23:34;101442.88;;;8.03;100.00
12172;BME280;6149;52.418;13.668;2022-10-31T01:26:09;101448.13;;;8.03;100.00
12172;BME280;6149;52.418;13.668;2022-10-31T01:28:44;101448.13;;;8.03;100.00
12172;BME280;6149;52.418;13.668;2022-10-31T01:31:16;101448.06;;;8.06;100.00
12172;BME280;6149;52.418;13.668;2022-10-31T01:33:44;101438.28;;;8.10;100.00
12172;BME280;6149;52.418;13.668;2022-10-31T01:36:15;101438.28;;;8.10;100.00
12172;BME280;6149;52.418;13.668;2022-10-31T01:38:44;101436.69;;;8.04;100.00
12172;BME280;6149;52.418;13.668;2022-10-31T01:41:19;101446.41;;;8.02;100.00
12172;BME280;6149;52.418;13.668;2022-10-31T01:43:50;101442.97;;;8.00;100.00
12172;BME280;6149;52.418;13.668;2022-10-31T01:46:22;101439.50;;;7.98;100.00
12172;BME280;6149;52.418;13.668;2022-10-31T01:48:52;101438.69;;;7.96;100.00
12172;BME280;6149;52.418;13.668;2022-10-31T01:51:24;101444.81;;;7.96;100.00
12172;BME280;6149;52.418;13.668;2022-10-31T01:54:00;101445.63;;;7.98;100.00
12172;BME280;6149;52.418;13.668;2022-10-31T01:56:37;101439.41;;;8.01;100.00
12172;BME280;6149;52.418;13.668;2022-10-31T01:59:09;101450.09;;;7.96;100.00
12172;BME280;6149;52.418;13.668;2022-10-31T02:01:41;101447.50;;;7.95;100.00
12172;BME280;6149;52.418;13.668;2022-10-31T02:04:07;101444.00;;;7.94;100.00
12172;BME280;6149;52.418;13.668;2022-10-31T02:06:37;101439.69;;;7.92;100.00
12172;BME280;6149;52.418;13.668;2022-10-31T02:09:08;101440.53;;;7.92;100.00
12172;BME280;6149;52.418;13.668;2022-10-31T02:11:37;101447.56;;;7.92;100.00
12172;BME280;6149;52.418;13.668;2022-10-31T02:14:05;101447.66;;;7.89;100.00
12172;BME280;6149;52.418;13.668;2022-10-31T02:16:33;101456.50;;;7.86;100.00
12172;BME280;6149;52.418;13.668;2022-10-31T02:19:00;101459.19;;;7.85;100.00
12172;BME280;6149;52.418;13.668;2022-10-31T02:21:37;101458.19;;;7.89;100.00
12172;BME280;6149;52.418;13.668;2022-10-31T02:24:34;101460.81;;;7.89;100.00
12172;BME280;6149;52.418;13.668;2022-10-31T02:27:28;101462.69;;;7.85;100.00
12172;BME280;6149;52.418;13.668;2022-10-31T02:30:16;101459.28;;;7.82;100.00
12172;BME280;6149;52.418;13.668;2022-10-31T02:32:56;101457.53;;;7.81;100.00
12172;BME280;6149;52.418;13.668;2022-10-31T02:35:41;101452.38;;;7.78;100.00
12172;BME280;6149;52.418;13.668;2022-10-31T02:38:24;101452.47;;;7.75;100.00
12172;BME280;6149;52.418;13.668;2022-10-31T02:41:03;101455.97;;;7.75;100.00
12172;BME280;6149;52.418;13.668;2022-10-31T02:43:41;101454.28;;;7.72;100.00
12172;BME280;6149;52.418;13.668;2022-10-31T02:46:14;101458.66;;;7.74;100.00
12172;BME280;6149;52.418;13.668;2022-10-31T02:48:51;101458.69;;;7.72;100.00
12172;BME280;6149;52.418;13.668;2022-10-31T02:51:22;101457.81;;;7.71;100.00
12172;BME280;6149;52.418;13.668;2022-10-31T02:53:49;101454.38;;;7.69;100.00
12172;BME280;6149;52.418;13.668;2022-10-31T02:56:18;101457.91;;;7.68;100.00
12172;BME280;6149;52.418;13.668;2022-10-31T02:58:49;101459.66;;;7.68;100.00
12172;BME280;6149;52.418;13.668;2022-10-31T03:01:39;101457.94;;;7.67;100.00
12172;BME280;6149;52.418;13.668;2022-10-31T03:04:28;101457.94;;;7.67;100.00
12172;BME280;6149;52.418;13.668;2022-10-31T03:07:08;101457.97;;;7.65;100.00
12172;BME280;6149;52.418;13.668;2022-10-31T03:09:46;101465.91;;;7.64;100.00
12172;BME280;6149;52.418;13.668;2022-10-31T03:12:25;101471.22;;;7.62;100.00
12172;BME280;6149;52.418;13.668;2022-10-31T03:15:02;101472.09;;;7.63;100.00
12172;BME280;6149;52.418;13.668;2022-10-31T03:17:37;101478.34;;;7.59;100.00
12172;BME280;6149;52.418;13.668;2022-10-31T03:20:15;101480.97;;;7.59;100.00
12172;BME280;6149;52.418;13.668;2022-10-31T03:22:47;101488.00;;;7.58;100.00
12172;BME280;6149;52.418;13.668;2022-10-31T03:25:16;101492.41;;;7.58;100.00
12172;BME280;6149;52.418;13.668;2022-10-31T03:27:45;101491.53;;;7.57;100.00
12172;BME280;6149;52.418;13.668;2022-10-31T03:30:14;101489.81;;;7.56;100.00
12172;BME280;6149;52.418;13.668;2022-10-31T03:32:46;101493.25;;;7.58;100.00
12172;BME280;6149;52.418;13.668;2022-10-31T03:35:20;101488.06;;;7.55;100.00
12172;BME280;6149;52.418;13.668;2022-10-31T03:37:49;101490.66;;;7.57;100.00
12172;BME280;6149;52.418;13.668;2022-10-31T03:40:21;101495.09;;;7.55;100.00
12172;BME280;6149;52.418;13.668;2022-10-31T03:42:53;101489.91;;;7.52;100.00
12172;BME280;6149;52.418;13.668;2022-10-31T03:45:27;101502.22;;;7.51;100.00
12172;BME280;6149;52.418;13.668;2022-10-31T03:47:58;101502.13;;;7.54;100.00
12172;BME280;6149;52.418;13.668;2022-10-31T03:50:32;101507.47;;;7.51;100.00
12172;BME280;6149;52.418;13.668;2022-10-31T03:53:08;101506.56;;;7.52;100.00
12172;BME280;6149;52.418;13.668;2022-10-31T03:55:41;101513.22;;;7.67;100.00
12172;BME280;6149;52.418;13.668;2022-10-31T03:58:17;101521.31;;;7.59;100.00
12172;BME280;6149;52.418;13.668;2022-10-31T04:00:50;101517.84;;;7.57;100.00
12172;BME280;6149;52.418;13.668;2022-10-31T04:03:22;101519.44;;;7.64;100.00
12172;BME280;6149;52.418;13.668;2022-10-31T04:05:53;101520.44;;;7.59;100.00
12172;BME280;6149;52.418;13.668;2022-10-31T04:08:25;101518.75;;;7.56;100.00
12172;BME280;6149;52.418;13.668;2022-10-31T04:10:57;101523.03;;;7.60;100.00
12172;BME280;6149;52.418;13.668;2022-10-31T04:13:29;101525.72;;;7.59;100.00
12172;BME280;6149;52.418;13.668;2022-10-31T04:15:59;101533.50;;;7.63;100.00
12172;BME280;6149;52.418;13.668;2022-10-31T04:18:27;101522.09;;;7.63;100.00
12172;BME280;6149;52.418;13.668;2022-10-31T04:21:06;101525.66;;;7.60;100.00
12172;BME280;6149;52.418;13.668;2022-10-31T04:23:35;101527.44;;;7.60;100.00
12172;BME280;6149;52.418;13.668;2022-10-31T04:26:03;101526.63;;;7.58;100.00
12172;BME280;6149;52.418;13.668;2022-10-31T04:28:31;101523.13;;;7.57;100.00
12172;BME280;6149;52.418;13.668;2022-10-31T04:31:00;101525.66;;;7.60;100.00
12172;BME280;6149;52.418;13.668;2022-10-31T04:33:28;101527.47;;;7.58;100.00
12172;BME280;6149;52.418;13.668;2022-10-31T04:35:56;101527.34;;;7.63;100.00
12172;BME280;6149;52.418;13.668;2022-10-31T04:38:25;101527.47;;;7.58;100.00
12172;BME280;6149;52.418;13.668;2022-10-31T04:40:53;101523.97;;;7.58;100.00
12172;BME280;6149;52.418;13.668;2022-10-31T04:43:20;101524.91;;;7.55;100.00
12172;BME280;6149;52.418;13.668;2022-10-31T04:45:48;101530.19;;;7.55;100.00
12172;BME280;6149;52.418;13.668;2022-10-31T04:48:15;101537.22;;;7.55;100.00
12172;BME280;6149;52.418;13.668;2022-10-31T04:50:43;101532.75;;;7.58;100.00
12172;BME280;6149;52.418;13.668;2022-10-31T04:53:10;101537.03;;;7.62;100.00
12172;BME280;6149;52.418;13.668;2022-10-31T04:55:39;101545.06;;;7.56;100.00
12172;BME280;6149;52.418;13.668;2022-10-31T04:58:07;101542.44;;;7.56;100.00
12172;BME280;6149;52.418;13.668;2022-10-31T05:00:35;101537.25;;;7.53;100.00
12172;BME280;6149;52.418;13.668;2022-10-31T05:03:03;101543.41;;;7.52;100.00
12172;BME280;6149;52.418;13.668;2022-10-31T05:05:31;101533.88;;;7.48;100.00
12172;BME280;6149;52.418;13.668;2022-10-31T05:07:58;101545.31;;;7.47;100.00
12172;BME280;6149;52.418;13.668;2022-10-31T05:10:27;101542.66;;;7.47;100.00
12172;BME280;6149;52.418;13.668;2022-10-31T05:12:59;101544.44;;;7.47;100.00
12172;BME280;6149;52.418;13.668;2022-10-31T05:15:28;101547.94;;;7.47;100.00
12172;BME280;6149;52.418;13.668;2022-10-31T05:17:57;101541.81;;;7.47;100.00
12172;BME280;6149;52.418;13.668;2022-10-31T05:20:28;101540.88;;;7.49;100.00
12172;BME280;6149;52.418;13.668;2022-10-31T05:22:58;101547.91;;;7.49;100.00
12172;BME280;6149;52.418;13.668;2022-10-31T05:25:28;101547.91;;;7.49;100.00
12172;BME280;6149;52.418;13.668;2022-10-31T05:27:56;101548.78;;;7.48;100.00
12172;BME280;6149;52.418;13.668;2022-10-31T05:30:26;101549.59;;;7.51;100.00
12172;BME280;6149;52.418;13.668;2022-10-31T05:32:55;101557.56;;;7.48;100.00
12172;BME280;6149;52.418;13.668;2022-10-31T05:35:25;101557.53;;;7.50;100.00
12172;BME280;6149;52.418;13.668;2022-10-31T05:37:55;101549.28;;;7.63;100.00
12172;BME280;6149;52.418;13.668;2022-10-31T05:40:23;101561.69;;;7.58;100.00
12172;BME280;6149;52.418;13.668;2022-10-31T05:42:51;101563.53;;;7.55;100.00
12172;BME280;6149;52.418;13.668;2022-10-31T05:45:22;101567.06;;;7.54;100.00
12172;BME280;6149;52.418;13.668;2022-10-31T05:47:54;101561.56;;;7.63;100.00
12172;BME280;6149;52.418;13.668;2022-10-31T05:50:22;101575.56;;;7.65;100.00
12172;BME280;6149;52.418;13.668;2022-10-31T05:52:55;101564.81;;;7.74;100.00
12172;BME280;6149;52.418;13.668;2022-10-31T05:55:22;101568.31;;;7.75;100.00
12172;BME280;6149;52.418;13.668;2022-10-31T05:57:50;101570.91;;;7.76;100.00
12172;BME280;6149;52.418;13.668;2022-10-31T06:00:17;101566.47;;;7.78;100.00
12172;BME280;6149;52.418;13.668;2022-10-31T06:02:48;101569.84;;;7.82;100.00
12172;BME280;6149;52.418;13.668;2022-10-31T06:05:15;101573.34;;;7.82;100.00
12172;BME280;6149;52.418;13.668;2022-10-31T06:07:42;101580.31;;;7.85;100.00
12172;BME280;6149;52.418;13.668;2022-10-31T06:10:10;101574.75;;;7.95;100.00
12172;BME280;6149;52.418;13.668;2022-10-31T06:12:37;101571.19;;;7.98;100.00
12172;BME280;6149;52.418;13.668;2022-10-31T06:15:08;101579.81;;;8.03;100.00
12172;BME280;6149;52.418;13.668;2022-10-31T06:17:36;101577.31;;;7.98;100.00
12172;BME280;6149;52.418;13.668;2022-10-31T06:20:07;101570.28;;;7.99;100.00
12172;BME280;6149;52.418;13.668;2022-10-31T06:22:34;101580.84;;;7.97;100.00
12172;BME280;6149;52.418;13.668;2022-10-31T06:25:00;101576.44;;;7.98;100.00
12172;BME280;6149;52.418;13.668;2022-10-31T06:27:27;101584.38;;;7.96;100.00
12172;BME280;6149;52.418;13.668;2022-10-31T06:29:55;101586.13;;;7.97;100.00
12172;BME280;6149;52.418;13.668;2022-10-31T06:35:32;101596.53;;;8.02;100.00
12172;BME280;6149;52.418;13.668;2022-10-31T06:37:59;101602.59;;;8.05;100.00
12172;BME280;6149;52.418;13.668;2022-10-31T06:40:25;101606.88;;;8.10;100.00
12172;BME280;6149;52.418;13.668;2022-10-31T06:42:56;101601.59;;;8.10;100.00
12172;BME280;6149;52.418;13.668;2022-10-31T06:45:23;101598.06;;;8.11;100.00
12172;BME280;6149;52.418;13.668;2022-10-31T06:47:52;101605.06;;;8.12;100.00
12172;BME280;6149;52.418;13.668;2022-10-31T06:50:18;101605.03;;;8.13;100.00
12172;BME280;6149;52.418;13.668;2022-10-31T06:52:51;101617.25;;;8.16;100.00
12172;BME280;6149;52.418;13.668;2022-10-31T06:55:19;101621.53;;;8.18;100.00
12172;BME280;6149;52.418;13.668;2022-10-31T06:57:50;101617.91;;;8.22;100.00
12172;BME280;6149;52.418;13.668;2022-10-31T07:00:19;101618.63;;;8.29;100.00
12172;BME280;6149;52.418;13.668;2022-10-31T07:02:57;101623.03;;;8.28;100.00
12172;BME280;6149;52.418;13.668;2022-10-31T07:05:26;101621.16;;;8.33;100.00
12172;BME280;6149;52.418;13.668;2022-10-31T07:07:57;101621.13;;;8.35;100.00
12172;BME280;6149;52.418;13.668;2022-10-31T07:10:26;101626.28;;;8.40;100.00
12172;BME280;6149;52.418;13.668;2022-10-31T07:12:55;101631.38;;;8.46;100.00
12172;BME280;6149;52.418;13.668;2022-10-31T07:15:22;101630.19;;;8.56;100.00
12172;BME280;6149;52.418;13.668;2022-10-31T07:17:50;101630.94;;;8.61;100.00
12172;BME280;6149;52.418;13.668;2022-10-31T07:20:17;101621.94;;;8.68;100.00
12172;BME280;6149;52.418;13.668;2022-10-31T07:22:49;101632.34;;;8.73;100.00
12172;BME280;6149;52.418;13.668;2022-10-31T07:25:22;101633.78;;;8.84;100.00
12172;BME280;6149;52.418;13.668;2022-10-31T07:27:49;101632.56;;;8.94;100.00
12172;BME280;6149;52.418;13.668;2022-10-31T07:30:16;101633.91;;;9.09;100.00
12172;BME280;6149;52.418;13.668;2022-10-31T07:32:46;101631.63;;;9.26;100.00
12172;BME280;6149;52.418;13.668;2022-10-31T07:35:16;101634.66;;;9.41;100.00
12172;BME280;6149;52.418;13.668;2022-10-31T07:37:43;101637.75;;;9.55;100.00
12172;BME280;6149;52.418;13.668;2022-10-31T07:40:11;101638.91;;;9.72;100.00
12172;BME280;6149;52.418;13.668;2022-10-31T07:42:42;101643.69;;;9.88;100.00
12172;BME280;6149;52.418;13.668;2022-10-31T07:45:12;101637.09;;;10.01;100.00
12172;BME280;6149;52.418;13.668;2022-10-31T07:47:41;101631.19;;;10.19;100.00
12172;BME280;6149;52.418;13.668;2022-10-31T07:50:23;101638.41;;;10.39;100.00
12172;BME280;6149;52.418;13.668;2022-10-31T07:53:01;101648.09;;;10.63;100.00
12172;BME280;6149;52.418;13.668;2022-10-31T07:55:29;101661.22;;;10.90;100.00
12172;BME280;6149;52.418;13.668;2022-10-31T07:57:58;101653.81;;;11.21;100.00
12172;BME280;6149;52.418;13.668;2022-10-31T08:00:26;101651.06;;;11.68;100.00
12172;BME280;6149;52.418;13.668;2022-10-31T08:03:00;101660.44;;;11.98;100.00
12172;BME280;6149;52.418;13.668;2022-10-31T08:05:28;101659.47;;;12.21;100.00
12172;BME280;6149;52.418;13.668;2022-10-31T08:07:55;101661.03;;;12.46;100.00
12172;BME280;6149;52.418;13.668;2022-10-31T08:10:23;101646.94;;;12.64;100.00
12172;BME280;6149;52.418;13.668;2022-10-31T08:13:03;101659.13;;;12.88;100.00
12172;BME280;6149;52.418;13.668;2022-10-31T08:15:31;101659.19;;;13.05;100.00
12172;BME280;6149;52.418;13.668;2022-10-31T08:18:00;101665.47;;;13.23;100.00
12172;BME280;6149;52.418;13.668;2022-10-31T08:20:27;101663.31;;;13.31;100.00
12172;BME280;6149;52.418;13.668;2022-10-31T08:22:55;101665.22;;;13.47;100.00
12172;BME280;6149;52.418;13.668;2022-10-31T08:25:22;101660.53;;;13.70;100.00
12172;BME280;6149;52.418;13.668;2022-10-31T08:27:50;101661.63;;;13.84;100.00
12172;BME280;6149;52.418;13.668;2022-10-31T08:30:19;101667.13;;;13.98;100.00
12172;BME280;6149;52.418;13.668;2022-10-31T08:32:46;101664.53;;;14.14;100.00
12172;BME280;6149;52.418;13.668;2022-10-31T08:35:13;101667.81;;;14.19;100.00
12172;BME280;6149;52.418;13.668;2022-10-31T08:37:41;101654.22;;;14.25;100.00
12172;BME280;6149;52.418;13.668;2022-10-31T08:40:10;101661.03;;;14.30;100.00
12172;BME280;6149;52.418;13.668;2022-10-31T08:42:39;101663.59;;;14.32;100.00
12172;BME280;6149;52.418;13.668;2022-10-31T08:45:06;101664.78;;;14.26;100.00
12172;BME280;6149;52.418;13.668;2022-10-31T08:47:35;101661.19;;;14.27;100.00
12172;BME280;6149;52.418;13.668;2022-10-31T08:50:02;101665.41;;;14.31;100.00
12172;BME280;6149;52.418;13.668;2022-10-31T08:52:29;101659.31;;;14.29;100.00
12172;BME280;6149;52.418;13.668;2022-10-31T08:54:55;101666.66;;;14.24;100.00
12172;BME280;6149;52.418;13.668;2022-10-31T08:57:22;101670.19;;;14.25;100.00
12172;BME280;6149;52.418;13.668;2022-10-31T08:59:49;101674.72;;;14.23;100.00
12172;BME280;6149;52.418;13.668;2022-10-31T09:02:15;101668.69;;;14.19;100.00
12172;BME280;6149;52.418;13.668;2022-10-31T09:04:43;101667.91;;;14.17;100.00
12172;BME280;6149;52.418;13.668;2022-10-31T09:07:10;101674.94;;;14.18;100.00
12172;BME280;6149;52.418;13.668;2022-10-31T09:09:38;101665.16;;;14.36;100.00
12172;BME280;6149;52.418;13.668;2022-10-31T09:12:05;101668.94;;;14.49;100.00
12172;BME280;6149;52.418;13.668;2022-10-31T09:14:31;101665.72;;;14.60;100.00
12172;BME280;6149;52.418;13.668;2022-10-31T09:16:58;101674.63;;;14.76;100.00
12172;BME280;6149;52.418;13.668;2022-10-31T09:19:25;101662.25;;;14.91;100.00
12172;BME280;6149;52.418;13.668;2022-10-31T09:21:54;101675.53;;;15.08;100.00
12172;BME280;6149;52.418;13.668;2022-10-31T09:24:22;101675.72;;;15.21;100.00
12172;BME280;6149;52.418;13.668;2022-10-31T09:26:48;101673.31;;;15.32;100.00
12172;BME280;6149;52.418;13.668;2022-10-31T09:29:15;101674.06;;;15.34;100.00
12172;BME280;6149;52.418;13.668;2022-10-31T09:31:41;101676.75;;;15.34;100.00
12172;BME280;6149;52.418;13.668;2022-10-31T09:34:09;101677.34;;;15.39;100.00
12172;BME280;6149;52.418;13.668;2022-10-31T09:36:36;101678.38;;;15.36;100.00
12172;BME280;6149;52.418;13.668;2022-10-31T09:39:06;101683.97;;;15.32;100.00
12172;BME280;6149;52.418;13.668;2022-10-31T09:41:46;101686.03;;;15.27;100.00
12172;BME280;6149;52.418;13.668;2022-10-31T09:44:26;101681.47;;;15.29;100.00
12172;BME280;6149;52.418;13.668;2022-10-31T09:47:03;101686.88;;;15.27;100.00
12172;BME280;6149;52.418;13.668;2022-10-31T09:49:49;101686.19;;;15.24;100.00
12172;BME280;6149;52.418;13.668;2022-10-31T09:52:26;101692.47;;;15.23;100.00
12172;BME280;6149;52.418;13.668;2022-10-31T09:55:00;101690.16;;;15.17;100.00
12172;BME280;6149;52.418;13.668;2022-10-31T09:57:33;101690.25;;;15.15;100.00
12172;BME280;6149;52.418;13.668;2022-10-31T10:00:03;101692.03;;;15.15;100.00
12172;BME280;6149;52.418;13.668;2022-10-31T10:02:36;101698.06;;;15.18;100.00
12172;BME280;6149;52.418;13.668;2022-10-31T10:05:10;101693.44;;;15.22;100.00
12172;BME280;6149;52.418;13.668;2022-10-31T10:07:44;101693.44;;;15.22;100.00
12172;BME280;6149;52.418;13.668;2022-10-31T10:10:31;101692.06;;;15.46;100.00
12172;BME280;6149;52.418;13.668;2022-10-31T10:13:20;101683.81;;;15.51;100.00
12172;BME280;6149;52.418;13.668;2022-10-31T10:16:06;101691.56;;;15.55;100.00
12172;BME280;6149;52.418;13.668;2022-10-31T10:18:51;101689.06;;;15.52;100.00
12172;BME280;6149;52.418;13.668;2022-10-31T10:21:35;101692.75;;;15.50;100.00
12172;BME280;6149;52.418;13.668;2022-10-31T10:24:23;101688.28;;;15.50;100.00
12172;BME280;6149;52.418;13.668;2022-10-31T10:27:01;101688.75;;;15.58;100.00
12172;BME280;6149;52.418;13.668;2022-10-31T10:29:40;101683.13;;;15.63;100.00
12172;BME280;6149;52.418;13.668;2022-10-31T10:32:18;101685.34;;;15.70;100.00
12172;BME280;6149;52.418;13.668;2022-10-31T10:34:51;101683.28;;;15.76;100.00
12172;BME280;6149;52.418;13.668;2022-10-31T10:37:26;101678.47;;;15.82;100.00
12172;BME280;6149;52.418;13.668;2022-10-31T10:40:01;101681.13;;;15.82;100.00
12172;BME280;6149;52.418;13.668;2022-10-31T10:42:35;101679.34;;;15.83;100.00
12172;BME280;6149;52.418;13.668;2022-10-31T10:45:22;101668.81;;;15.95;100.00
12172;BME280;6149;52.418;13.668;2022-10-31T10:48:14;101669.88;;;16.07;100.00
12172;BME280;6149;52.418;13.668;2022-10-31T10:50:48;101662.69;;;16.23;100.00
12172;BME280;6149;52.418;13.668;2022-10-31T10:53:25;101658.22;;;16.38;100.00
12172;BME280;6149;52.418;13.668;2022-10-31T10:56:17;101670.47;;;16.56;100.00
12172;BME280;6149;52.418;13.668;2022-10-31T10:58:55;101662.53;;;16.70;100.00
12172;BME280;6149;52.418;13.668;2022-10-31T11:01:23;101655.44;;;16.84;100.00
12172;BME280;6149;52.418;13.668;2022-10-31T11:03:51;101663.38;;;16.99;100.00
12172;BME280;6149;52.418;13.668;2022-10-31T11:06:21;101658.84;;;17.14;100.00
12172;BME280;6149;52.418;13.668;2022-10-31T11:08:51;101661.13;;;17.20;100.00
12172;BME280;6149;52.418;13.668;2022-10-31T11:11:23;101660.06;;;17.23;100.00
12172;BME280;6149;52.418;13.668;2022-10-31T11:13:59;101655.84;;;17.33;100.00
12172;BME280;6149;52.418;13.668;2022-10-31T11:16:31;101658.25;;;17.37;100.00
12172;BME280;6149;52.418;13.668;2022-10-31T11:19:08;101655.75;;;17.34;100.00
12172;BME280;6149;52.418;13.668;2022-10-31T11:21:41;101650.31;;;17.36;100.00
12172;BME280;6149;52.418;13.668;2022-10-31T11:24:14;101645.16;;;17.33;100.00
12172;BME280;6149;52.418;13.668;2022-10-31T11:26:48;101651.47;;;17.32;100.00
12172;BME280;6149;52.418;13.668;2022-10-31T11:29:20;101650.31;;;17.36;100.00
12172;BME280;6149;52.418;13.668;2022-10-31T11:31:51;101639.53;;;17.37;100.00
12172;BME280;6149;52.418;13.668;2022-10-31T11:34:28;101641.81;;;17.44;100.00
12172;BME280;6149;52.418;13.668;2022-10-31T11:37:03;101642.13;;;17.52;100.00
12172;BME280;6149;52.418;13.668;2022-10-31T11:39:40;101639.63;;;17.63;100.00
12172;BME280;6149;52.418;13.668;2022-10-31T11:42:09;101634.09;;;17.66;100.00
12172;BME280;6149;52.418;13.668;2022-10-31T11:44:41;101633.91;;;17.69;100.00
12172;BME280;6149;52.418;13.668;2022-10-31T11:47:13;101639.72;;;17.76;100.00
12172;BME280;6149;52.418;13.668;2022-10-31T11:49:43;101639.31;;;17.82;100.00
12172;BME280;6149;52.418;13.668;2022-10-31T11:52:15;101636.63;;;17.94;100.00
12172;BME280;6149;52.418;13.668;2022-10-31T11:54:47;101640.81;;;17.98;99.86
12172;BME280;6149;52.418;13.668;2022-10-31T11:57:23;101634.41;;;18.01;99.02
12172;BME280;6149;52.418;13.668;2022-10-31T11:59:55;101632.59;;;18.01;99.36
12172;BME280;6149;52.418;13.668;2022-10-31T12:02:24;101633.44;;;18.02;99.69
12172;BME280;6149;52.418;13.668;2022-10-31T12:04:59;101639.75;;;18.01;99.61
12172;BME280;6149;52.418;13.668;2022-10-31T12:07:28;101633.00;;;17.95;99.59
12172;BME280;6149;52.418;13.668;2022-10-31T12:09:55;101636.75;;;17.93;100.00
12172;BME280;6149;52.418;13.668;2022-10-31T12:12:40;101628.16;;;17.88;98.55
12172;BME280;6149;52.418;13.668;2022-10-31T12:15:30;101627.00;;;17.92;98.18
12172;BME280;6149;52.418;13.668;2022-10-31T12:18:22;101633.22;;;17.92;98.94
12172;BME280;6149;52.418;13.668;2022-10-31T12:21:06;101630.44;;;17.94;99.48
12172;BME280;6149;52.418;13.668;2022-10-31T12:23:48;101629.03;;;17.88;99.18
12172;BME280;6149;52.418;13.668;2022-10-31T12:26:32;101629.44;;;17.82;99.44
12172;BME280;6149;52.418;13.668;2022-10-31T12:29:23;101628.91;;;17.77;100.00
12172;BME280;6149;52.418;13.668;2022-10-31T12:32:09;101631.69;;;17.76;100.00
12172;BME280;6149;52.418;13.668;2022-10-31T12:35:02;101625.69;;;17.72;100.00
12172;BME280;6149;52.418;13.668;2022-10-31T12:37:52;101617.94;;;17.67;100.00
12172;BME280;6149;52.418;13.668;2022-10-31T12:40:43;101624.38;;;17.65;100.00
12172;BME280;6149;52.418;13.668;2022-10-31T12:43:32;101623.47;;;17.64;100.00
12172;BME280;6149;52.418;13.668;2022-10-31T12:46:03;101621.09;;;17.60;100.00
12172;BME280;6149;52.418;13.668;2022-10-31T12:48:56;101617.88;;;17.55;100.00
12172;BME280;6149;52.418;13.668;2022-10-31T12:51:42;101610.91;;;17.52;100.00
12172;BME280;6149;52.418;13.668;2022-10-31T12:54:39;101614.09;;;17.45;100.00
12172;BME280;6149;52.418;13.668;2022-10-31T12:57:22;101612.25;;;17.45;100.00
12172;BME280;6149;52.418;13.668;2022-10-31T12:59:53;101606.09;;;17.45;100.00
12172;BME280;6149;52.418;13.668;2022-10-31T13:02:29;101606.28;;;17.42;100.00
12172;BME280;6149;52.418;13.668;2022-10-31T13:05:03;101608.09;;;17.41;100.00
12172;BME280;6149;52.418;13.668;2022-10-31T13:07:37;101599.22;;;17.41;100.00
12172;BME280;6149;52.418;13.668;2022-10-31T13:10:16;101600.06;;;17.41;100.00
12172;BME280;6149;52.418;13.668;2022-10-31T13:12:47;101599.13;;;17.42;100.00
12172;BME280;6149;52.418;13.668;2022-10-31T13:15:19;101593.00;;;17.40;100.00